Time;durP1;ratioP1;P1;durP2;ratioP2;P2;SDS_P1;SDS_P2;PMS_P1;PMS_P2;Temp;Humidity;BMP_temperature;BMP_pressure;BME280_temperature;BME280_humidity;BME280_pressure;Samples;Min_cycle;Max_cycle;Signal;HPM_P1;HPM_P2
2022/03/30 00:00:28;;;;;;;56.00;24.92;;;;;;;6.15;61.40;97541.56;4954151;28;20016;-80
2022/03/30 00:02:54;;;;;;;53.53;24.92;;;;;;;6.13;61.49;97543.78;4953934;28;20082;-80
2022/03/30 00:05:20;;;;;;;60.03;28.02;;;;;;;6.06;61.41;97535.13;4954620;28;20114;-79
2022/03/30 00:07:53;;;;;;;93.75;32.60;;;;;;;6.01;61.28;97537.91;4953669;28;20048;-80
2022/03/30 00:10:19;;;;;;;105.50;33.83;;;;;;;5.96;61.33;97536.81;4953802;28;20058;-79
2022/03/30 00:12:44;;;;;;;150.48;44.45;;;;;;;5.90;61.59;97542.63;4955294;28;20023;-80
2022/03/30 00:15:10;;;;;;;192.68;51.70;;;;;;;5.81;62.02;97540.53;4953747;28;20015;-79
2022/03/30 00:17:35;;;;;;;207.07;58.13;;;;;;;5.74;61.50;97531.09;4953822;28;20480;-80
2022/03/30 00:20:02;;;;;;;214.52;56.90;;;;;;;5.70;61.82;97530.88;4954639;28;20027;-79
2022/03/30 00:22:28;;;;;;;197.90;53.75;;;;;;;5.65;62.00;97534.44;4954730;28;20027;-80
2022/03/30 00:24:53;;;;;;;136.65;42.35;;;;;;;5.58;61.46;97536.66;4970274;28;20529;-80
2022/03/30 00:27:18;;;;;;;142.32;42.95;;;;;;;5.49;62.43;97527.53;4974114;28;20027;-80
2022/03/30 00:29:45;;;;;;;123.15;37.70;;;;;;;5.43;61.99;97534.09;4973745;28;20030;-79
2022/03/30 00:32:10;;;;;;;100.90;33.92;;;;;;;5.40;62.08;97526.50;4973940;28;20386;-79
2022/03/30 00:34:37;;;;;;;57.67;24.92;;;;;;;5.32;61.90;97528.75;4973623;28;20031;-79
2022/03/30 00:37:02;;;;;;;70.65;34.88;;;;;;;5.26;63.25;97531.78;4973210;28;20046;-79
2022/03/30 00:39:28;;;;;;;54.88;27.90;;;;;;;5.16;62.82;97533.50;4973693;28;20038;-80
2022/03/30 00:41:53;;;;;;;52.97;26.48;;;;;;;5.07;62.59;97530.56;4973649;28;20049;-80
2022/03/30 00:44:19;;;;;;;44.80;22.83;;;;;;;5.01;62.81;97534.41;4973606;28;20033;-79
2022/03/30 00:46:44;;;;;;;44.53;23.38;;;;;;;4.94;63.37;97533.91;4973764;28;20030;-79
2022/03/30 00:49:11;;;;;;;46.47;23.88;;;;;;;4.88;63.62;97532.31;4973458;28;20035;-79
2022/03/30 00:51:36;;;;;;;48.88;24.67;;;;;;;4.83;63.21;97529.63;4973622;28;20465;-79
2022/03/30 00:54:03;;;;;;;64.43;28.17;;;;;;;4.81;63.72;97537.25;4973665;28;20023;-80
2022/03/30 00:56:31;;;;;;;59.75;26.08;;;;;;;4.74;63.30;97526.72;4966012;28;20074;-79
2022/03/30 00:58:57;;;;;;;54.67;25.38;;;;;;;4.69;63.44;97532.16;4953954;28;20484;-79
2022/03/30 01:01:23;;;;;;;48.28;24.00;;;;;;;4.65;63.66;97531.94;4954059;28;20082;-79
2022/03/30 01:03:49;;;;;;;49.55;23.98;;;;;;;4.63;63.47;97520.53;4954330;28;20038;-79
2022/03/30 01:06:14;;;;;;;53.13;25.83;;;;;;;4.62;64.14;97525.13;4953744;28;20027;-79
2022/03/30 01:08:40;;;;;;;45.28;22.67;;;;;;;4.63;64.16;97523.25;4953803;28;20066;-80
2022/03/30 01:11:09;;;;;;;49.55;23.55;;;;;;;4.62;63.37;97521.63;4953959;28;20453;-79
2022/03/30 01:13:35;;;;;;;46.45;22.70;;;;;;;4.61;64.04;97511.84;4953923;28;20047;-79
2022/03/30 01:16:02;;;;;;;45.05;22.25;;;;;;;4.60;63.73;97512.94;4953720;28;20066;-79
2022/03/30 01:18:28;;;;;;;46.28;22.77;;;;;;;4.59;63.97;97503.97;4953801;28;20026;-79
2022/03/30 01:20:53;;;;;;;46.60;23.75;;;;;;;4.58;64.18;97509.69;4953993;28;20028;-79
2022/03/30 01:23:18;;;;;;;48.38;24.52;;;;;;;4.54;63.74;97505.91;4953904;28;20030;-79
2022/03/30 01:25:44;;;;;;;45.90;23.55;;;;;;;4.51;63.82;97504.56;4957768;28;20018;-79
2022/03/30 01:28:09;;;;;;;49.33;24.15;;;;;;;4.52;64.23;97505.38;4973336;28;20022;-79
2022/03/30 01:33:20;;;;;;;52.72;24.70;;;;;;;4.52;63.94;97492.59;4972506;28;20038;-79
2022/03/30 01:35:46;;;;;;;49.45;25.52;;;;;;;4.51;64.62;97480.13;4972227;28;20467;-79
2022/03/30 01:38:11;;;;;;;48.95;23.83;;;;;;;4.52;64.39;97491.81;4972411;28;20073;-79
2022/03/30 01:40:38;;;;;;;49.60;24.05;;;;;;;4.53;64.74;97479.84;4956228;28;20359;-79
2022/03/30 01:43:04;;;;;;;52.30;25.10;;;;;;;4.51;64.73;97482.03;4953222;28;20028;-80
2022/03/30 01:45:29;;;;;;;65.45;28.80;;;;;;;4.50;64.46;97480.41;4953305;28;20086;-80
2022/03/30 01:47:57;;;;;;;78.20;30.52;;;;;;;4.47;64.43;97474.44;4970529;28;20034;-80
2022/03/30 01:50:25;;;;;;;88.57;32.92;;;;;;;4.43;64.32;97464.44;4972500;28;20046;-80
2022/03/30 01:52:50;;;;;;;76.85;31.92;;;;;;;4.39;64.18;97466.09;4972374;28;20050;-80
2022/03/30 01:55:17;;;;;;;67.05;28.17;;;;;;;4.36;64.17;97464.72;4972515;28;20033;-80
2022/03/30 01:57:43;;;;;;;67.82;29.83;;;;;;;4.34;64.22;97471.53;4953305;28;20027;-80
2022/03/30 02:00:10;;;;;;;54.60;27.65;;;;;;;4.29;65.09;97459.63;4952817;28;20467;-79
2022/03/30 02:02:37;;;;;;;55.78;28.08;;;;;;;4.24;64.44;97456.13;4952750;28;20027;-80
2022/03/30 02:05:04;;;;;;;51.08;26.27;;;;;;;4.17;64.74;97457.25;4949922;28;20031;-80
2022/03/30 02:07:29;;;;;;;52.42;25.77;;;;;;;4.14;64.78;97455.09;4952950;28;20035;-79
2022/03/30 02:09:55;;;;;;;54.38;26.92;;;;;;;4.12;64.73;97451.00;4953295;28;20090;-79
2022/03/30 02:12:20;;;;;;;50.92;24.48;;;;;;;4.09;64.62;97463.25;4952934;28;20047;-80
2022/03/30 02:14:47;;;;;;;49.40;24.17;;;;;;;4.04;64.46;97463.25;4952916;28;20118;-79
2022/03/30 02:17:12;;;;;;;51.15;25.00;;;;;;;4.00;64.56;97462.19;4953073;28;20111;-76
2022/03/30 02:19:38;;;;;;;51.88;25.83;;;;;;;3.95;64.95;97464.94;4968960;28;20122;-77
2022/03/30 02:22:03;;;;;;;52.42;25.70;;;;;;;3.90;64.62;97459.50;4972552;28;20022;-77
2022/03/30 02:24:29;;;;;;;55.53;27.35;;;;;;;3.85;65.72;97457.66;4972003;28;20085;-76
2022/03/30 02:26:54;;;;;;;51.00;26.35;;;;;;;3.82;65.49;97453.59;4972740;28;20078;-77
2022/03/30 02:29:20;;;;;;;48.75;24.92;;;;;;;3.83;65.91;97457.09;4971508;28;20547;-76
2022/03/30 02:31:45;;;;;;;50.42;25.83;;;;;;;3.79;65.66;97451.44;4972112;28;20382;-76
2022/03/30 02:34:11;;;;;;;52.13;24.63;;;;;;;3.75;65.60;97447.66;4972888;28;20388;-76
2022/03/30 02:36:37;;;;;;;52.45;25.73;;;;;;;3.72;65.16;97448.19;4972078;28;20062;-76
2022/03/30 02:39:04;;;;;;;47.95;24.90;;;;;;;3.68;65.98;97453.34;4972571;28;20054;-74
2022/03/30 02:41:32;;;;;;;51.35;25.00;;;;;;;3.67;65.87;97442.78;4969044;28;20026;-75
2022/03/30 02:43:58;;;;;;;48.25;23.80;;;;;;;3.65;65.76;97443.09;4951590;28;20034;-76
2022/03/30 02:46:23;;;;;;;50.33;24.10;;;;;;;3.64;65.77;97435.22;4952481;28;20487;-76
2022/03/30 02:48:49;;;;;;;51.25;24.60;;;;;;;3.62;65.93;97434.66;4951325;28;20031;-76
2022/03/30 02:51:14;;;;;;;52.88;26.15;;;;;;;3.60;65.79;97437.66;4950981;28;20050;-75
2022/03/30 02:53:39;;;;;;;60.67;32.58;;;;;;;3.61;65.91;97435.75;4952277;28;20115;-75
2022/03/30 02:56:05;;;;;;;57.15;31.85;;;;;;;3.64;66.55;97437.91;4952262;28;20034;-76
2022/03/30 02:58:32;;;;;;;59.55;31.98;;;;;;;3.65;66.01;97440.38;4949862;28;20027;-76
2022/03/30 03:00:58;;;;;;;59.13;31.65;;;;;;;3.71;66.26;97446.56;4954995;28;20027;-76
2022/03/30 03:03:24;;;;;;;62.65;33.88;;;;;;;3.75;66.25;97442.22;4956270;28;20027;-76
2022/03/30 03:05:50;;;;;;;60.05;31.77;;;;;;;3.81;65.90;97440.31;4956389;28;20075;-76
2022/03/30 03:08:15;;;;;;;64.43;32.47;;;;;;;3.86;66.26;97438.41;4955860;28;20082;-76
2022/03/30 03:10:44;;;;;;;60.97;30.35;;;;;;;3.91;66.49;97439.44;4956037;28;20039;-76
2022/03/30 03:13:09;;;;;;;57.22;28.67;;;;;;;3.91;66.52;97437.56;4955730;28;20510;-76
2022/03/30 03:15:36;;;;;;;57.53;28.27;;;;;;;3.93;65.98;97440.81;4955836;28;20031;-76
2022/03/30 03:18:02;;;;;;;55.97;27.83;;;;;;;4.01;65.92;97442.13;4956053;28;20037;-75
2022/03/30 03:20:29;;;;;;;51.78;27.17;;;;;;;4.01;66.70;97433.97;4956163;28;20391;-76
2022/03/30 03:22:55;;;;;;;54.65;26.70;;;;;;;4.02;66.49;97430.16;4954508;28;20032;-75
2022/03/30 03:25:21;;;;;;;51.42;26.45;;;;;;;4.00;65.71;97432.34;4955750;28;20082;-76
2022/03/30 03:27:47;;;;;;;52.53;25.63;;;;;;;3.99;66.07;97433.44;4955983;28;20031;-75
2022/03/30 03:30:13;;;;;;;54.30;26.40;;;;;;;4.00;66.04;97433.19;4970165;28;20439;-76
2022/03/30 03:32:39;;;;;;;52.55;26.17;;;;;;;4.03;65.77;97431.78;4974670;28;20445;-76
2022/03/30 03:35:04;;;;;;;53.78;27.08;;;;;;;4.01;65.98;97426.66;4967861;28;20059;-75
2022/03/30 03:37:30;;;;;;;58.25;27.95;;;;;;;3.99;66.29;97428.84;4956869;28;20403;-76
2022/03/30 03:39:55;;;;;;;54.97;26.27;;;;;;;3.99;65.64;97425.31;4952545;28;20411;-75
2022/03/30 03:42:21;;;;;;;55.80;28.90;;;;;;;4.00;66.15;97425.03;4955254;28;20099;-75
2022/03/30 03:44:46;;;;;;;60.63;28.20;;;;;;;3.98;66.25;97434.53;4955415;28;20063;-76
2022/03/30 03:47:12;;;;;;;57.88;27.05;;;;;;;3.98;66.20;97437.25;4954855;28;20036;-75
2022/03/30 03:49:37;;;;;;;59.53;29.25;;;;;;;3.95;65.95;97437.78;4955575;28;20030;-76
2022/03/30 03:52:04;;;;;;;56.33;26.73;;;;;;;3.93;65.48;97434.53;4953918;28;20051;-76
2022/03/30 03:54:30;;;;;;;58.03;29.27;;;;;;;3.93;65.52;97437.25;4955125;28;20034;-75
2022/03/30 03:56:55;;;;;;;57.80;29.15;;;;;;;3.95;65.49;97426.94;4954760;28;20023;-75
2022/03/30 03:59:21;;;;;;;58.13;27.67;;;;;;;3.93;65.43;97435.38;4955315;28;20070;-75
2022/03/30 04:01:46;;;;;;;56.97;28.35;;;;;;;3.87;66.32;97428.34;4955013;28;20027;-75
2022/03/30 04:04:11;;;;;;;57.10;27.63;;;;;;;3.84;65.40;97429.72;4955646;28;20016;-75
2022/03/30 04:06:37;;;;;;;56.28;27.08;;;;;;;3.83;66.24;97435.41;4954090;28;20032;-75
2022/03/30 04:09:03;;;;;;;55.40;26.65;;;;;;;3.80;65.77;97427.81;4951441;28;20036;-75
2022/03/30 04:11:28;;;;;;;53.67;26.70;;;;;;;3.79;65.48;97434.34;4953801;28;20062;-75
2022/03/30 04:13:54;;;;;;;57.58;28.33;;;;;;;3.76;66.17;97433.00;4968545;28;20034;-75
2022/03/30 04:16:20;;;;;;;55.15;26.80;;;;;;;3.79;66.03;97432.44;4963337;28;20380;-75
2022/03/30 04:18:46;;;;;;;55.55;27.05;;;;;;;3.79;66.52;97429.75;4954893;28;20035;-76
2022/03/30 04:21:11;;;;;;;59.95;27.95;;;;;;;3.81;65.96;97434.88;4954430;28;20526;-75
2022/03/30 04:23:38;;;;;;;56.45;27.88;;;;;;;3.83;66.60;97421.84;4954894;28;20039;-75
2022/03/30 04:26:03;;;;;;;57.38;28.75;;;;;;;3.85;65.85;97420.50;4954082;28;20514;-75
2022/03/30 04:28:29;;;;;;;59.92;29.25;;;;;;;3.86;65.97;97432.16;4954770;28;20055;-73
2022/03/30 04:30:55;;;;;;;63.33;28.73;;;;;;;3.85;66.42;97430.53;4951257;28;20054;-73
2022/03/30 04:33:20;;;;;;;56.50;28.50;;;;;;;3.84;66.05;97427.00;4953889;28;20082;-73
2022/03/30 04:35:47;;;;;;;61.53;29.08;;;;;;;3.81;65.92;97427.56;4954031;28;20027;-74
2022/03/30 04:38:13;;;;;;;64.22;28.45;;;;;;;3.83;66.16;97427.28;4954867;28;20042;-73
2022/03/30 04:40:38;;;;;;;64.15;30.23;;;;;;;3.84;65.69;97427.00;4954480;28;20027;-73
2022/03/30 04:43:04;;;;;;;61.53;30.58;;;;;;;3.85;65.97;97428.63;4953004;28;20034;-76
2022/03/30 04:45:29;;;;;;;59.97;29.75;;;;;;;3.87;66.25;97420.22;4952304;28;20391;-76
2022/03/30 04:47:55;;;;;;;58.47;30.20;;;;;;;3.88;66.44;97428.06;4952983;28;20047;-76
2022/03/30 04:50:21;;;;;;;65.82;30.05;;;;;;;3.90;65.78;97421.53;4954479;28;20038;-77
2022/03/30 04:52:47;;;;;;;60.10;28.20;;;;;;;3.90;66.01;97426.97;4953333;28;20045;-76
2022/03/30 04:55:14;;;;;;;56.33;28.77;;;;;;;3.91;65.75;97425.88;4952569;28;20058;-76
2022/03/30 04:57:40;;;;;;;58.05;28.38;;;;;;;3.92;66.08;97422.91;4954198;28;20035;-75
2022/03/30 05:00:09;;;;;;;57.97;27.88;;;;;;;3.95;65.69;97433.19;4953642;28;20082;-75
2022/03/30 05:02:34;;;;;;;56.15;28.20;;;;;;;3.98;66.49;97418.25;4949734;28;20039;-76
2022/03/30 05:05:00;;;;;;;59.15;28.83;;;;;;;4.03;66.58;97420.94;4948650;28;20471;-76
2022/03/30 05:07:25;;;;;;;55.45;27.65;;;;;;;4.07;66.16;97415.78;4954030;28;20039;-76
2022/03/30 05:09:51;;;;;;;58.97;28.17;;;;;;;4.09;65.81;97417.13;4952695;28;20122;-76
2022/03/30 05:12:17;;;;;;;59.20;29.75;;;;;;;4.12;66.98;97416.56;4953633;28;20486;-76
2022/03/30 05:14:43;;;;;;;57.15;30.23;;;;;;;4.20;66.08;97414.34;4953549;28;20063;-76
2022/03/30 05:17:08;;;;;;;57.50;28.13;;;;;;;4.28;66.67;97416.47;4953128;28;20109;-76
2022/03/30 05:19:34;;;;;;;57.78;29.63;;;;;;;4.36;66.62;97417.78;4952813;28;20027;-75
2022/03/30 05:22:01;;;;;;;60.88;30.52;;;;;;;4.42;66.59;97413.94;4953695;28;20028;-76
2022/03/30 05:24:26;;;;;;;59.38;29.60;;;;;;;4.51;66.92;97409.53;4951762;28;20531;-75
2022/03/30 05:26:53;;;;;;;66.05;29.92;;;;;;;4.60;66.91;97407.81;4953074;28;20115;-76
2022/03/30 05:29:19;;;;;;;65.65;30.05;;;;;;;4.69;66.32;97413.47;4952414;28;20097;-76
2022/03/30 05:31:45;;;;;;;59.85;29.65;;;;;;;4.76;66.84;97408.53;4952012;28;20035;-76
2022/03/30 05:34:11;;;;;;;66.32;32.30;;;;;;;4.85;67.07;97414.19;4953443;28;20034;-76
2022/03/30 05:36:36;;;;;;;57.50;29.60;;;;;;;4.91;66.21;97404.84;4952278;28;20082;-76
2022/03/30 05:39:02;;;;;;;65.60;30.52;;;;;;;4.97;66.82;97405.66;4958454;28;20030;-76
2022/03/30 05:41:28;;;;;;;67.32;33.42;;;;;;;5.02;66.38;97408.31;4959681;28;20054;-76
2022/03/30 05:43:53;;;;;;;72.07;34.10;;;;;;;5.13;66.97;97408.19;4953521;28;20034;-76
2022/03/30 05:46:19;;;;;;;63.38;31.85;;;;;;;5.19;66.42;97413.31;4953099;28;20052;-75
2022/03/30 05:48:44;;;;;;;65.38;32.90;;;;;;;5.22;66.39;97414.66;4952114;28;20506;-76
2022/03/30 05:51:09;;;;;;;61.97;32.28;;;;;;;5.28;65.95;97410.00;4952773;28;20031;-76
2022/03/30 05:53:35;;;;;;;68.22;34.50;;;;;;;5.33;66.16;97409.91;4953312;28;20115;-76
2022/03/30 05:56:02;;;;;;;69.38;33.42;;;;;;;5.39;66.70;97405.25;4953175;28;20055;-76
2022/03/30 05:58:27;;;;;;;86.28;42.85;;;;;;;5.41;66.22;97416.66;4952315;28;20042;-76
2022/03/30 06:00:53;;;;;;;93.50;45.35;;;;;;;5.44;65.94;97410.63;4951258;28;20070;-76
2022/03/30 09:27:39;;;;;;;46.30;27.42;;;;;;;11.36;54.33;97351.41;5106687;27;20392;-66
2022/03/30 09:30:06;;;;;;;44.47;24.50;;;;;;;11.40;54.18;97355.09;5112641;28;20081;-66
2022/03/30 09:32:32;;;;;;;41.83;23.40;;;;;;;11.55;54.56;97349.09;5105658;27;20032;-67
2022/03/30 09:34:57;;;;;;;40.65;23.67;;;;;;;11.62;54.23;97348.56;5104692;28;20031;-67
2022/03/30 09:37:23;;;;;;;50.53;28.15;;;;;;;11.75;54.19;97338.47;5110120;28;20016;-67
2022/03/30 09:39:49;;;;;;;47.63;26.58;;;;;;;11.94;54.05;97348.22;5113762;27;20473;-68
2022/03/30 09:42:16;;;;;;;48.22;24.38;;;;;;;12.02;53.21;97339.97;5101443;28;20041;-67
2022/03/30 09:44:50;;;;;;;47.72;27.73;;;;;;;12.02;52.66;97339.16;5109343;28;20103;-68
2022/03/30 09:47:16;;;;;;;43.90;25.58;;;;;;;12.05;52.52;97339.28;5108021;28;20027;-68
2022/03/30 09:49:41;;;;;;;41.88;23.33;;;;;;;12.09;52.81;97331.16;5103337;28;20046;-67
2022/03/30 09:52:11;;;;;;;46.58;26.55;;;;;;;12.14;51.74;97330.97;5106639;28;20035;-68
2022/03/30 09:54:42;;;;;;;44.78;25.00;;;;;;;12.24;51.66;97328.97;5107355;28;20051;-68
2022/03/30 09:57:10;;;;;;;39.75;23.48;;;;;;;12.30;51.72;97325.69;5107367;28;20020;-68
2022/03/30 09:59:55;;;;;;;49.25;26.05;;;;;;;12.36;51.02;97334.56;5107880;28;20027;-68
2022/03/30 10:02:20;;;;;;;44.03;25.88;;;;;;;12.56;51.34;97329.34;5105984;28;20544;-68
2022/03/30 10:04:47;;;;;;;44.63;24.50;;;;;;;12.70;50.88;97316.13;5107378;28;20141;-68
2022/03/30 10:07:13;;;;;;;45.92;25.65;;;;;;;12.82;50.99;97304.34;5107656;28;20055;-68
2022/03/30 10:09:39;;;;;;;50.15;26.17;;;;;;;13.05;51.34;97304.75;5107234;28;20024;-67
2022/03/30 10:12:05;;;;;;;46.55;26.40;;;;;;;13.26;50.68;97290.09;5107143;28;20027;-68
2022/03/30 10:14:33;;;;;;;43.65;24.42;;;;;;;13.33;48.89;97295.84;5106718;28;20020;-68
2022/03/30 10:16:59;;;;;;;42.28;23.05;;;;;;;13.16;49.69;97282.31;5106567;28;20438;-68
2022/03/30 10:19:24;;;;;;;41.65;24.38;;;;;;;13.20;49.95;97288.72;5107355;28;20028;-68
2022/03/30 10:22:02;;;;;;;45.80;26.27;;;;;;;13.36;49.74;97286.09;5107262;28;20062;-68
2022/03/30 10:24:49;;;;;;;43.10;24.52;;;;;;;13.50;49.98;97278.31;5106569;28;20504;-68
2022/03/30 10:27:34;;;;;;;44.15;26.05;;;;;;;13.68;49.69;97278.88;5100630;28;20513;-68
2022/03/30 10:30:03;;;;;;;44.33;25.25;;;;;;;13.84;49.20;97284.50;5093995;28;20028;-68
2022/03/30 10:32:34;;;;;;;42.80;23.35;;;;;;;13.84;48.23;97275.44;5093791;28;20051;-68
2022/03/30 10:35:13;;;;;;;40.65;23.42;;;;;;;13.71;48.44;97269.13;5093257;28;20393;-68
2022/03/30 10:37:42;;;;;;;42.67;25.63;;;;;;;13.74;48.91;97273.13;5093435;28;20023;-68
2022/03/30 10:40:14;;;;;;;44.42;23.65;;;;;;;13.75;48.47;97261.78;5093500;28;20016;-67
2022/03/30 10:42:46;;;;;;;108.50;49.58;;;;;;;13.61;47.91;97253.88;5093310;28;20385;-68
2022/03/30 10:45:38;;;;;;;40.47;23.42;;;;;;;13.51;47.90;97251.59;5092790;28;20031;-67
2022/03/30 10:48:37;;;;;;;42.90;23.88;;;;;;;13.52;47.83;97251.22;5093530;28;20106;-68
2022/03/30 10:51:08;;;;;;;51.30;29.80;;;;;;;13.48;47.41;97253.06;5093182;28;20028;-69
2022/03/30 10:53:34;;;;;;;93.63;46.30;;;;;;;13.36;46.08;97247.56;5090550;28;20073;-69
2022/03/30 10:56:29;;;;;;;43.55;23.75;;;;;;;13.28;46.44;97251.22;5092723;28;20024;-69
2022/03/30 10:58:56;;;;;;;41.88;23.52;;;;;;;13.30;47.10;97244.22;5092238;28;20036;-68
2022/03/30 11:01:25;;;;;;;46.50;25.48;;;;;;;13.19;46.64;97241.13;5092942;28;20031;-69
2022/03/30 11:04:18;;;;;;;55.80;31.63;;;;;;;13.18;47.17;97235.97;5091342;28;20449;-69
2022/03/30 11:07:14;;;;;;;61.05;34.08;;;;;;;13.19;47.41;97241.13;5092494;28;20347;-69
2022/03/30 11:09:40;;;;;;;46.65;26.35;;;;;;;13.29;47.56;97234.34;5058475;28;20499;-69
2022/03/30 11:12:13;;;;;;;39.38;21.95;;;;;;;13.40;46.83;97235.50;5092514;28;20111;-68
2022/03/30 11:15:00;;;;;;;39.33;22.63;;;;;;;13.51;47.15;97235.84;5091913;28;20099;-69
2022/03/30 11:17:35;;;;;;;40.50;22.65;;;;;;;13.66;46.82;97231.59;5090267;28;20081;-69
2022/03/30 11:20:06;;;;;;;41.22;23.30;;;;;;;13.84;46.81;97239.59;5091360;28;20032;-69
2022/03/30 11:22:36;;;;;;;57.72;30.35;;;;;;;14.02;46.53;97228.31;5086583;28;20040;-68
2022/03/30 11:25:21;;;;;;;;;;;;;;;14.02;46.47;97228.31;5092423;28;20032;-68
2022/03/30 11:28:10;;;;;;;38.72;22.77;;;;;;;14.01;46.24;97221.19;5091509;28;19942;-69
2022/03/30 11:30:38;;;;;;;40.60;23.30;;;;;;;14.09;45.89;97212.78;5091772;28;20039;-70
2022/03/30 11:33:12;;;;;;;35.05;20.90;;;;;;;14.02;44.79;97211.78;5093768;28;20039;-68
2022/03/30 11:35:42;;;;;;;38.13;21.98;;;;;;;13.96;44.87;97216.72;5092358;28;20032;-68
2022/03/30 11:38:21;;;;;;;;;;;;;;;13.84;44.04;97210.09;5094569;28;20123;-68
2022/03/30 11:40:49;;;;;;;34.45;20.30;;;;;;;13.55;44.46;97209.22;5091942;28;19908;-67
2022/03/30 11:43:19;;;;;;;40.20;23.77;;;;;;;13.36;43.67;97209.00;5093307;28;20032;-67
2022/03/30 11:45:45;;;;;;;;;;;;;;;13.31;43.40;97204.50;5094299;28;20073;-67
2022/03/30 11:48:12;;;;;;;40.67;22.00;;;;;;;13.25;43.83;97206.72;5092753;28;20317;-67
2022/03/30 11:50:43;;;;;;;45.72;24.35;;;;;;;13.32;43.75;97205.34;5091762;28;20365;-66
2022/03/30 11:53:12;;;;;;;40.88;22.15;;;;;;;13.40;43.65;97202.44;5090569;28;20032;-68
2022/03/30 11:55:50;;;;;;;44.88;24.98;;;;;;;13.54;44.19;97196.59;5092343;28;20035;-67
2022/03/30 11:58:28;;;;;;;43.60;25.38;;;;;;;13.57;44.47;97191.53;5090532;28;20567;-68
2022/03/30 12:00:56;;;;;;;43.28;25.02;;;;;;;13.61;44.49;97195.22;5091621;28;20058;-68
2022/03/30 12:03:23;;;;;;;40.75;23.67;;;;;;;13.49;43.16;97193.28;5090574;28;20544;-68
2022/03/30 12:05:57;;;;;;;39.05;22.38;;;;;;;13.25;43.00;97192.13;5090055;28;20035;-71
2022/03/30 12:08:24;;;;;;;45.90;25.90;;;;;;;12.95;43.03;97187.66;5090479;28;20024;-67
2022/03/30 12:10:56;;;;;;;43.28;24.35;;;;;;;12.81;43.81;97189.94;5092673;28;20024;-68
2022/03/30 12:13:24;;;;;;;36.08;22.35;;;;;;;12.78;43.79;97193.38;5072744;28;20470;-68
2022/03/30 12:16:11;;;;;;;41.92;24.08;;;;;;;12.84;43.33;97180.22;5090967;28;20034;-67
2022/03/30 12:18:47;;;;;;;45.00;24.17;;;;;;;12.82;44.09;97186.06;5094551;28;20508;-68
2022/03/30 12:21:18;;;;;;;39.72;22.17;;;;;;;12.84;43.58;97177.47;5091105;28;20400;-67
2022/03/30 12:23:51;;;;;;;42.17;24.55;;;;;;;12.92;43.89;97171.03;5085220;28;20100;-66
2022/03/30 12:26:16;;;;;;;45.30;25.00;;;;;;;13.02;43.95;97167.03;5084147;28;20056;-67
2022/03/30 12:28:42;;;;;;;41.28;22.67;;;;;;;12.98;44.64;97169.66;5090502;28;20031;-67
2022/03/30 12:31:10;;;;;;;42.58;22.60;;;;;;;12.92;44.24;97166.34;5091139;28;20028;-69
2022/03/30 12:34:17;;;;;;;48.08;26.33;;;;;;;12.70;43.39;97173.09;5089641;28;20024;-69
2022/03/30 12:36:48;;;;;;;47.58;25.77;;;;;;;12.55;43.90;97158.06;5064564;28;20481;-68
2022/03/30 12:39:16;;;;;;;46.38;25.92;;;;;;;12.51;43.83;97157.13;5092139;28;20149;-68
2022/03/30 12:41:42;;;;;;;35.13;20.67;;;;;;;12.49;44.04;97156.66;5091687;28;20023;-65
2022/03/30 12:44:09;;;;;;;39.15;21.90;;;;;;;12.33;44.54;97162.03;5092434;28;20381;-66
2022/03/30 12:46:36;;;;;;;36.55;21.35;;;;;;;12.22;44.16;97158.91;5091811;28;20629;-67
2022/03/30 12:49:08;;;;;;;41.38;23.17;;;;;;;12.08;44.21;97153.69;5094780;28;20031;-66
2022/03/30 12:51:34;;;;;;;39.25;22.48;;;;;;;11.99;44.13;97156.53;5086574;28;20028;-66
2022/03/30 12:54:04;;;;;;;42.25;22.08;;;;;;;11.90;43.93;97153.00;5093896;28;20024;-69
2022/03/30 12:56:29;;;;;;;36.53;21.05;;;;;;;11.85;44.39;97145.78;5090460;28;20073;-68
2022/03/30 12:58:56;;;;;;;35.97;20.35;;;;;;;11.87;44.97;97139.94;5087875;28;20024;-70
2022/03/30 13:01:35;;;;;;;48.00;26.13;;;;;;;11.85;44.97;97142.22;5093099;28;20183;-67
2022/03/30 13:04:03;;;;;;;45.03;24.52;;;;;;;11.82;45.19;97138.22;5094483;28;20035;-73
2022/03/30 13:06:29;;;;;;;41.50;23.38;;;;;;;11.83;45.07;97136.25;5089163;28;20031;-68
2022/03/30 13:09:08;;;;;;;49.88;29.45;;;;;;;11.80;44.93;97135.00;5093105;28;20028;-68
2022/03/30 13:11:42;;;;;;;48.63;28.92;;;;;;;11.81;45.17;97128.38;5093133;28;20024;-69
2022/03/30 13:14:15;;;;;;;42.60;23.02;;;;;;;11.79;44.70;97124.38;5092557;28;20024;-68
2022/03/30 13:16:41;;;;;;;46.67;26.17;;;;;;;11.79;46.03;97116.91;5092667;28;20028;-67
2022/03/30 13:19:11;;;;;;;38.97;21.63;;;;;;;11.82;44.81;97116.25;5093115;28;20077;-67
2022/03/30 13:21:44;;;;;;;39.22;22.70;;;;;;;11.82;44.65;97109.97;5091582;28;20032;-67
2022/03/30 13:24:18;;;;;;;43.38;23.83;;;;;;;11.83;44.69;97106.88;5094725;28;20039;-68
2022/03/30 13:26:46;;;;;;;41.05;22.65;;;;;;;11.85;45.03;97101.84;5092529;28;20066;-70
2022/03/30 13:29:12;;;;;;;41.40;21.25;;;;;;;11.88;44.50;97098.41;5091047;28;20032;-67
2022/03/30 13:31:43;;;;;;;46.10;24.38;;;;;;;11.87;44.99;97087.75;5090385;28;20024;-68
2022/03/30 13:34:10;;;;;;;49.80;28.27;;;;;;;11.92;45.71;97087.53;5093379;28;20051;-67
2022/03/30 13:36:36;;;;;;;43.80;26.35;;;;;;;11.97;45.77;97075.56;5090214;28;20093;-67
2022/03/30 13:39:04;;;;;;;44.80;24.27;;;;;;;12.03;45.09;97090.69;5090581;28;20081;-67
2022/03/30 13:41:29;;;;;;;36.60;19.02;;;;;;;12.05;44.76;97077.41;5091707;28;20035;-68
2022/03/30 13:43:55;;;;;;;52.28;25.83;;;;;;;11.99;45.08;97076.84;5090201;28;20077;-68
2022/03/30 13:46:21;;;;;;;44.85;22.90;;;;;;;11.98;44.60;97068.91;5090236;28;20029;-68
2022/03/30 13:48:47;;;;;;;41.17;22.73;;;;;;;11.89;44.55;97077.22;5090064;28;20028;-68
2022/03/30 13:51:13;;;;;;;45.92;25.70;;;;;;;11.82;44.29;97066.81;5089994;28;20395;-67
2022/03/30 13:53:39;;;;;;;42.97;23.85;;;;;;;11.82;44.77;97066.81;5090008;28;20035;-68
2022/03/30 13:56:06;;;;;;;39.28;22.55;;;;;;;11.82;45.15;97058.56;5089976;28;20111;-68
2022/03/30 13:58:34;;;;;;;47.67;29.67;;;;;;;11.85;45.19;97066.13;5089798;28;20060;-68
2022/03/30 14:01:02;;;;;;;40.08;21.52;;;;;;;11.91;45.08;97063.97;5092784;28;20097;-69
2022/03/30 14:03:30;;;;;;;47.17;22.98;;;;;;;11.88;44.54;97062.69;5094390;28;20023;-69
2022/03/30 14:05:56;;;;;;;39.05;21.30;;;;;;;11.94;44.51;97065.25;5096051;28;20111;-69
2022/03/30 14:08:22;;;;;;;34.20;19.35;;;;;;;11.94;43.89;97066.03;5094425;28;20020;-67
2022/03/30 14:10:49;;;;;;;36.85;20.48;;;;;;;11.90;44.11;97060.41;5094870;28;20501;-68
2022/03/30 14:13:14;;;;;;;44.17;22.35;;;;;;;11.88;44.41;97057.22;5094708;28;20024;-67
2022/03/30 14:15:40;;;;;;;61.42;29.77;;;;;;;11.84;43.65;97059.03;5094358;28;20024;-68
2022/03/30 14:18:08;;;;;;;39.35;20.20;;;;;;;11.82;44.07;97055.81;5092871;28;20492;-67
2022/03/30 14:20:34;;;;;;;36.17;19.25;;;;;;;11.84;43.93;97053.53;5088792;28;20772;-68
2022/03/30 14:22:59;;;;;;;37.70;20.02;;;;;;;11.81;44.23;97054.22;5099386;28;20381;-67
2022/03/30 14:25:25;;;;;;;34.58;20.02;;;;;;;11.77;43.93;97050.53;5093529;28;20520;-67
2022/03/30 14:27:50;;;;;;;38.20;19.58;;;;;;;11.75;43.99;97045.38;5091919;28;20401;-68
2022/03/30 14:30:16;;;;;;;36.30;19.25;;;;;;;11.74;44.06;97045.72;5092874;28;20038;-68
2022/03/30 14:32:43;;;;;;;33.35;19.45;;;;;;;11.71;43.76;97038.97;5077713;28;20488;-67
2022/03/30 14:35:09;;;;;;;30.23;17.45;;;;;;;11.65;44.06;97040.31;5093301;28;20128;-68
2022/03/30 14:37:35;;;;;;;32.47;18.30;;;;;;;11.55;43.73;97029.75;5093817;28;20127;-68
2022/03/30 14:40:02;;;;;;;40.80;23.40;;;;;;;11.42;44.05;97043.41;5094614;28;20119;-68
2022/03/30 14:42:28;;;;;;;38.83;20.67;;;;;;;11.31;43.83;97034.78;5093870;28;20028;-69
2022/03/30 14:44:53;;;;;;;35.05;19.80;;;;;;;11.23;44.03;97032.13;5095703;28;20062;-67
2022/03/30 14:47:19;;;;;;;31.50;17.13;;;;;;;11.17;44.49;97026.06;5096137;28;20390;-68
2022/03/30 14:49:45;;;;;;;35.20;17.52;;;;;;;11.07;43.96;97027.25;5095133;28;20386;-68
2022/03/30 14:52:16;;;;;;;30.45;17.52;;;;;;;11.02;44.26;97031.00;5092644;28;20020;-68